• Join FlightAware (Why Join?)
  • Login
  • US Flag 
07:53AM EST


 

Airport Tracker/Info


-or-


 

Live Flight TrackerFlight Track Log ✈ CES5528 ✈ 07-Oct-2013 ✈ ZHLY / LYA - ZSSS / SHA

Flight Track Log - Related Links

Times and Time Zones

All times are in EDT time to prevent confusion due to time zone crossing. See the CES5528 flight status page for this flight to view local times or setup timezone preferences in your user account.

Time Position Orientation Groundspeed Altitude Reporting Facility
EDT Latitude Longitude Course Direction KTS MPH feet Rate Location/Type
02:46PM 34.4415 113.2448 113° Southeast  Level Estimated
02:47PM 34.3910 113.3869 113° Southeast  Level Estimated
02:48PM 34.3403 113.5288 113° Southeast  Level Estimated
02:49PM 34.2895 113.6706 113° Southeast  Level Estimated
02:50PM 34.2385 113.8123 114° Southeast  Level Estimated
02:51PM 34.1873 113.9537 114° Southeast  Level Estimated
02:52PM 34.1360 114.0950 114° Southeast  Level Estimated
02:53PM 34.0845 114.2361 114° Southeast  Level Estimated
02:54PM 34.0329 114.3770 114° Southeast  Level Estimated
02:55PM 33.9810 114.5178 114° Southeast  Level Estimated
02:56PM 33.9291 114.6584 114° Southeast  Level Estimated
02:57PM 33.8769 114.7988 114° Southeast  Level Estimated
02:58PM 33.8247 114.9390 114° Southeast  Level Estimated
02:59PM 33.7722 115.0791 114° Southeast  Level Estimated
03:00PM 33.7196 115.2190 114° Southeast  Level Estimated
03:01PM 33.6668 115.3588 114° Southeast  Level Estimated
03:02PM 33.6139 115.4983 114° Southeast  Level Estimated
03:03PM 33.5608 115.6377 115° Southeast  Level Estimated
03:04PM 33.5076 115.7769 115° Southeast  Level Estimated
03:05PM 33.4542 115.9160 115° Southeast  Level Estimated
03:06PM 33.4007 116.0548 115° Southeast  Level Estimated
03:07PM 33.3470 116.1936 115° Southeast  Level Estimated
03:08PM 33.2931 116.3321 115° Southeast  Level Estimated
03:09PM 33.2391 116.4704 115° Southeast  Level Estimated
03:10PM 33.1850 116.6086 115° Southeast  Level Estimated
03:11PM 33.1306 116.7467 115° Southeast  Level Estimated
03:12PM 33.0762 116.8845 115° Southeast  Level Estimated
03:13PM 33.0216 117.0222 115° Southeast  Level Estimated
03:14PM 32.9668 117.1597 115° Southeast  Level Estimated
03:15PM 32.9119 117.2970 115° Southeast  Level Estimated
03:16PM 32.8568 117.4342 116° Southeast  Level Estimated
03:17PM 32.8016 117.5712 116° Southeast  Level Estimated
03:18PM 32.7463 117.7080 116° Southeast  Level Estimated
03:19PM 32.6940 117.8367 116° Southeast  Level Estimated
03:20PM 32.6415 117.9653 116° Southeast  Level Estimated
03:21PM 32.5890 118.0938 116° Southeast  Level Estimated
03:22PM 32.5363 118.2221 116° Southeast  Level Estimated
03:23PM 32.4835 118.3502 116° Southeast  Level Estimated
03:24PM 32.4306 118.4782 116° Southeast  Level Estimated
03:25PM 32.3775 118.6060 116° Southeast  Level Estimated
03:26PM 32.3243 118.7337 116° Southeast  Level Estimated
03:27PM 32.2710 118.8612 116° Southeast  Level Estimated
03:28PM 32.2175 118.9886 116° Southeast  Level Estimated
03:29PM 32.1639 119.1158 116° Southeast  Level Estimated
03:30PM 32.1102 119.2429 116° Southeast  Level Estimated
03:31PM 32.0564 119.3698 117° Southeast  Level Estimated
03:32PM 32.0024 119.4966 117° Southeast  Level Estimated
03:33PM 31.9483 119.6232 117° Southeast  Level Estimated
03:34PM 31.8941 119.7497 117° Southeast  Level Estimated
03:35PM 31.8398 119.8761 117° Southeast  Level Estimated
03:36PM 31.7853 120.0023 117° Southeast  Level Estimated
03:37PM 31.7307 120.1283 117° Southeast  Level Estimated
03:38PM 31.6760 120.2542 117° Southeast  Level Estimated
03:39PM 31.6211 120.3799 117° Southeast  Level Estimated
03:40PM 31.5662 120.5055 117° Southeast  Level Estimated
03:41PM 31.5111 120.6310 117° Southeast  Level Estimated
03:42PM 31.4559 120.7563 117° Southeast  Level Estimated
03:43PM 31.4006 120.8814 117° Southeast  Level Estimated
03:43PM 31.6290 120.3770 117° Southeast 361 415 13,400  Level FlightAware
03:44PM 31.3451 121.0064 117° Southeast  Level Estimated
03:44PM 31.6290 120.4560 90° East 355 409 12,500  Level FlightAware
03:44PM 31.6260 120.5290 93° East 336 387 11,800 -540 Descending FlightAware
03:45PM 31.6220 120.6070 93° East 316 364 11,800  Level FlightAware
03:45PM 31.6190 120.6680 93° East 311 358 11,800 -720 Level FlightAware
03:46PM 31.6160 120.7250 94° East 306 352 11,000 -1,200 Descending FlightAware
03:47PM 31.6130 120.7980 93° East 294 338 10,200 -1,080 Descending FlightAware
03:47PM 31.6110 120.8300 94° East 289 333 9,800 -1,500 Descending FlightAware
03:48PM 31.6080 120.8780 94° East 291 335 8,900 -1,620 Descending FlightAware
03:48PM 31.6070 120.9130 92° East 281 323 8,500 -540 Descending FlightAware
03:48PM 31.6050 120.9500 94° East 281 323 8,500  Level FlightAware
03:49PM 31.6040 120.9810 92° East 281 323 8,500 -1,920 Level FlightAware
03:49PM 31.6020 121.0130 94° East 266 306 7,200 -2,280 Descending FlightAware
03:49PM 31.6000 121.0390 95° East 264 304 7,100 -180 Descending FlightAware
03:50PM 31.5980 121.0750 94° East 264 304 7,100  Level FlightAware
03:50PM 31.5970 121.1080 92° East 262 302 7,100  Level FlightAware
03:50PM 31.5960 121.1220 95° East 259 298 7,100  Level FlightAware
03:51PM 31.5940 121.1710 93° East 259 298 7,100  Level FlightAware
03:54PM 31.3223 121.2846 160° South  Level Estimated
03:54PM 31.5830 121.4200 160° South 7,100  Level FlightAware
03:54PM 31.5820 121.4470 92° East 265 305 7,200 120 Climbing FlightAware
03:55PM 31.5820 121.4810 90° East 265 305 7,200 420 Level FlightAware
03:56PM 31.5480 121.6240 198° South 266 306 8,100 420 Climbing FlightAware
03:57PM 31.3808 121.4050 198° South  Level Estimated
03:57PM 31.5390 121.6490 113° Southeast 262 302 8,100  Level FlightAware
03:57PM 31.5260 121.6830 114° Southeast 261 300 8,100  Level FlightAware
03:57PM 31.5080 121.7060 133° Southeast 270 311 8,100  Level FlightAware
03:58PM 31.4880 121.7220 146° Southeast 270 311 8,100  Level FlightAware
03:58PM 31.4660 121.7400 145° Southeast 271 312 8,100  Level FlightAware
03:58PM 31.4500 121.7500 152° Southeast 268 308 8,100  Level FlightAware
03:59PM 31.4270 121.7620 156° South 268 308 8,100  Level FlightAware
03:59PM 31.4030 121.7740 157° South 268 308 8,100  Level FlightAware
03:59PM 31.3810 121.7860 155° Southeast 268 308 8,100  Level FlightAware
04:00PM 31.3510 121.8010 157° South 269 310 8,100  Level FlightAware
04:00PM 31.3140 121.8080 171° South 277 319 8,100  Level FlightAware
04:01PM 31.2870 121.7940 204° Southwest 280 322 8,100  Level FlightAware
04:01PM 31.2590 121.7770 207° Southwest 276 318 8,100  Level FlightAware
04:01PM 31.2330 121.7610 208° Southwest 261 300 8,100 -180 Level FlightAware
04:02PM 31.2070 121.7440 209° Southwest 261 300 8,000 -480 Descending FlightAware
04:02PM 31.1940 121.7320 218° Southwest 256 295 7,800 -780 Descending FlightAware
04:02PM 31.1740 121.7070 227° Southwest 257 296 7,500 -720 Descending FlightAware
04:03PM 31.1520 121.6780 228° Southwest 250 288 7,200 -480 Descending FlightAware
04:03PM 31.1310 121.6510 228° Southwest 257 296 7,100 -300 Descending FlightAware
04:04PM 31.1140 121.6250 233° Southwest 261 300 7,000 -360 Descending FlightAware
04:04PM 31.1060 121.6080 241° Southwest 259 298 6,900 -540 Descending FlightAware
04:04PM 31.0970 121.5830 247° West 251 289 6,700 -720 Descending FlightAware
04:05PM 31.0900 121.5630 248° West 242 278 6,500 -900 Descending FlightAware
04:05PM 31.0820 121.5400 248° West 239 275 6,200 -780 Descending FlightAware
04:05PM 31.0750 121.5160 251° West 227 261 6,000 -900 Descending FlightAware
04:06PM 31.0710 121.4940 258° West 227 261 5,600 -900 Descending FlightAware
04:06PM 31.0680 121.4740 260° West 218 251 5,400 -1,020 Descending FlightAware
04:06PM 31.0630 121.4430 259° West 217 250 4,900 -1,080 Descending FlightAware
04:07PM 31.0580 121.4190 256° West 210 242 4,600 -1,080 Descending FlightAware
04:07PM 31.0500 121.3970 247° West 206 237 4,200 -1,200 Descending FlightAware
04:07PM 31.0470 121.3910 240° Southwest 203 234 4,000 -1,440 Descending FlightAware
04:07PM 31.0380 121.3720 241° Southwest 200 230 3,500 -660 Descending FlightAware
04:08PM 31.0270 121.3510 239° Southwest 200 230 3,500 -1,080 Level FlightAware
04:09PM 31.0440 121.3860 60° Northeast 199 229 1,900 -1,080 Descending FlightAware
04:09PM 31.0360 121.3640 247° West 199 229 1,900 -840 Level FlightAware
04:10PM 31.1140 121.3410 346° North 137 158 1,400 -1,500 Descending FlightAware
04:10PM 31.1260 121.3400 356° North 136 157 1,200 -720 Descending FlightAware
04:10PM 31.1370 121.3400 360° North 136 157 1,000 -720 Descending FlightAware
04:10PM 31.1490 121.3390 356° North 136 157 800 -660 Descending FlightAware
04:11PM 31.1550 121.3390 360° North 136 157 700 -660 Descending FlightAware
04:11PM 31.1820 121.3370 356° North 136 157 200 -540 Descending FlightAware
04:12PM 31.2000 121.3360 357° North 135 155 100 -240 Descending FlightAware
04:14PM 31.1979 121.3363 173° South  Level Estimated